sensor_id;sensor_type;location;lat;lon;timestamp;temperature;humidity
66752;SHT31;53663;42.676;23.238;2023-08-20T00:00:07;20.58;63.14
66752;SHT31;53663;42.676;23.238;2023-08-20T00:02:39;20.65;62.56
66752;SHT31;53663;42.676;23.238;2023-08-20T00:05:06;20.49;62.88
66752;SHT31;53663;42.676;23.238;2023-08-20T00:07:32;20.59;62.30
66752;SHT31;53663;42.676;23.238;2023-08-20T00:09:58;20.49;63.24
66752;SHT31;53663;42.676;23.238;2023-08-20T00:12:24;20.45;63.26
66752;SHT31;53663;42.676;23.238;2023-08-20T00:14:53;20.45;63.96
66752;SHT31;53663;42.676;23.238;2023-08-20T00:17:20;20.49;64.40
66752;SHT31;53663;42.676;23.238;2023-08-20T00:19:46;20.49;64.16
66752;SHT31;53663;42.676;23.238;2023-08-20T00:22:11;20.54;64.10
66752;SHT31;53663;42.676;23.238;2023-08-20T00:24:37;20.49;64.36
66752;SHT31;53663;42.676;23.238;2023-08-20T00:27:03;20.44;64.21
66752;SHT31;53663;42.676;23.238;2023-08-20T00:29:28;20.44;64.48
66752;SHT31;53663;42.676;23.238;2023-08-20T00:31:54;20.35;64.43
66752;SHT31;53663;42.676;23.238;2023-08-20T00:34:19;20.23;65.41
66752;SHT31;53663;42.676;23.238;2023-08-20T00:36:45;20.25;65.84
66752;SHT31;53663;42.676;23.238;2023-08-20T00:39:11;20.24;65.38
66752;SHT31;53663;42.676;23.238;2023-08-20T00:41:36;20.25;65.53
66752;SHT31;53663;42.676;23.238;2023-08-20T00:44:02;20.31;65.10
66752;SHT31;53663;42.676;23.238;2023-08-20T00:46:29;20.24;65.59
66752;SHT31;53663;42.676;23.238;2023-08-20T00:48:55;20.24;65.31
66752;SHT31;53663;42.676;23.238;2023-08-20T00:51:22;20.25;65.28
66752;SHT31;53663;42.676;23.238;2023-08-20T00:53:48;20.17;65.66
66752;SHT31;53663;42.676;23.238;2023-08-20T00:56:14;20.07;66.09
66752;SHT31;53663;42.676;23.238;2023-08-20T00:58:40;20.00;66.10
66752;SHT31;53663;42.676;23.238;2023-08-20T01:01:06;19.90;66.79
66752;SHT31;53663;42.676;23.238;2023-08-20T01:03:31;20.03;66.27
66752;SHT31;53663;42.676;23.238;2023-08-20T01:08:55;20.13;66.70
66752;SHT31;53663;42.676;23.238;2023-08-20T01:11:30;20.18;66.25
66752;SHT31;53663;42.676;23.238;2023-08-20T01:13:58;20.13;66.19
66752;SHT31;53663;42.676;23.238;2023-08-20T01:16:24;20.16;65.78
66752;SHT31;53663;42.676;23.238;2023-08-20T01:18:49;20.18;65.99
66752;SHT31;53663;42.676;23.238;2023-08-20T01:21:38;20.23;65.71
66752;SHT31;53663;42.676;23.238;2023-08-20T01:26:45;20.17;65.87
66752;SHT31;53663;42.676;23.238;2023-08-20T01:29:15;20.17;65.21
66752;SHT31;53663;42.676;23.238;2023-08-20T01:31:40;20.12;65.29
66752;SHT31;53663;42.676;23.238;2023-08-20T01:34:06;20.17;65.07
66752;SHT31;53663;42.676;23.238;2023-08-20T01:36:31;20.18;65.27
66752;SHT31;53663;42.676;23.238;2023-08-20T01:38:57;20.20;64.85
66752;SHT31;53663;42.676;23.238;2023-08-20T01:41:22;20.16;64.57
66752;SHT31;53663;42.676;23.238;2023-08-20T01:43:48;20.21;64.36
66752;SHT31;53663;42.676;23.238;2023-08-20T01:46:13;20.18;64.34
66752;SHT31;53663;42.676;23.238;2023-08-20T01:48:39;20.20;64.30
66752;SHT31;53663;42.676;23.238;2023-08-20T01:51:04;20.16;64.70
66752;SHT31;53663;42.676;23.238;2023-08-20T01:53:30;20.16;64.63
66752;SHT31;53663;42.676;23.238;2023-08-20T01:55:55;20.21;64.61
66752;SHT31;53663;42.676;23.238;2023-08-20T01:58:22;20.27;64.37
66752;SHT31;53663;42.676;23.238;2023-08-20T02:00:48;20.28;64.55
66752;SHT31;53663;42.676;23.238;2023-08-20T02:03:13;20.33;64.39
66752;SHT31;53663;42.676;23.238;2023-08-20T02:05:39;20.34;64.08
66752;SHT31;53663;42.676;23.238;2023-08-20T02:08:08;20.33;63.65
66752;SHT31;53663;42.676;23.238;2023-08-20T02:10:33;20.34;64.14
66752;SHT31;53663;42.676;23.238;2023-08-20T02:12:59;20.33;64.34
66752;SHT31;53663;42.676;23.238;2023-08-20T02:15:24;20.25;64.77
66752;SHT31;53663;42.676;23.238;2023-08-20T02:17:50;20.24;64.34
66752;SHT31;53663;42.676;23.238;2023-08-20T02:20:16;20.23;64.04
66752;SHT31;53663;42.676;23.238;2023-08-20T02:22:42;20.21;64.32
66752;SHT31;53663;42.676;23.238;2023-08-20T02:25:08;20.20;64.38
66752;SHT31;53663;42.676;23.238;2023-08-20T02:27:33;20.21;64.59
66752;SHT31;53663;42.676;23.238;2023-08-20T02:29:59;20.14;64.78
66752;SHT31;53663;42.676;23.238;2023-08-20T02:32:24;20.14;65.02
66752;SHT31;53663;42.676;23.238;2023-08-20T02:34:51;19.98;65.87
66752;SHT31;53663;42.676;23.238;2023-08-20T02:37:16;19.97;66.31
66752;SHT31;53663;42.676;23.238;2023-08-20T02:39:42;19.96;66.19
66752;SHT31;53663;42.676;23.238;2023-08-20T02:42:07;19.79;66.79
66752;SHT31;53663;42.676;23.238;2023-08-20T02:44:34;19.87;66.84
66752;SHT31;53663;42.676;23.238;2023-08-20T02:46:59;19.89;66.60
66752;SHT31;53663;42.676;23.238;2023-08-20T02:49:25;19.90;66.48
66752;SHT31;53663;42.676;23.238;2023-08-20T02:51:50;19.87;66.82
66752;SHT31;53663;42.676;23.238;2023-08-20T02:54:15;19.90;66.83
66752;SHT31;53663;42.676;23.238;2023-08-20T02:56:41;19.86;67.25
66752;SHT31;53663;42.676;23.238;2023-08-20T02:59:07;19.75;67.48
66752;SHT31;53663;42.676;23.238;2023-08-20T03:01:32;19.72;67.70
66752;SHT31;53663;42.676;23.238;2023-08-20T03:03:58;19.22;69.18
66752;SHT31;53663;42.676;23.238;2023-08-20T03:06:23;19.01;69.85
66752;SHT31;53663;42.676;23.238;2023-08-20T03:08:49;19.07;69.77
66752;SHT31;53663;42.676;23.238;2023-08-20T03:11:14;19.18;69.50
66752;SHT31;53663;42.676;23.238;2023-08-20T03:13:40;19.27;69.08
66752;SHT31;53663;42.676;23.238;2023-08-20T03:16:05;19.36;68.97
66752;SHT31;53663;42.676;23.238;2023-08-20T03:18:31;19.31;69.25
66752;SHT31;53663;42.676;23.238;2023-08-20T03:20:56;19.28;68.64
66752;SHT31;53663;42.676;23.238;2023-08-20T03:23:23;19.24;68.42
66752;SHT31;53663;42.676;23.238;2023-08-20T03:25:49;19.22;68.71
66752;SHT31;53663;42.676;23.238;2023-08-20T03:28:15;19.25;68.90
66752;SHT31;53663;42.676;23.238;2023-08-20T03:30:40;19.25;68.70
66752;SHT31;53663;42.676;23.238;2023-08-20T03:33:06;19.27;68.59
66752;SHT31;53663;42.676;23.238;2023-08-20T03:35:34;19.27;68.46
66752;SHT31;53663;42.676;23.238;2023-08-20T03:37:59;19.25;68.49
66752;SHT31;53663;42.676;23.238;2023-08-20T03:40:25;19.28;68.67
66752;SHT31;53663;42.676;23.238;2023-08-20T03:42:50;19.29;68.89
66752;SHT31;53663;42.676;23.238;2023-08-20T03:45:16;19.28;68.67
66752;SHT31;53663;42.676;23.238;2023-08-20T03:47:42;19.28;68.97
66752;SHT31;53663;42.676;23.238;2023-08-20T03:50:09;19.28;69.15
66752;SHT31;53663;42.676;23.238;2023-08-20T03:52:35;19.31;69.03
66752;SHT31;53663;42.676;23.238;2023-08-20T03:55:02;19.32;69.21
66752;SHT31;53663;42.676;23.238;2023-08-20T03:57:27;19.31;69.28
66752;SHT31;53663;42.676;23.238;2023-08-20T03:59:53;19.32;69.21
66752;SHT31;53663;42.676;23.238;2023-08-20T04:02:18;19.32;69.70
66752;SHT31;53663;42.676;23.238;2023-08-20T04:04:44;19.04;70.48
66752;SHT31;53663;42.676;23.238;2023-08-20T04:07:09;19.03;70.66
66752;SHT31;53663;42.676;23.238;2023-08-20T04:09:35;19.18;70.04
66752;SHT31;53663;42.676;23.238;2023-08-20T04:12:02;19.29;69.43
66752;SHT31;53663;42.676;23.238;2023-08-20T04:14:28;19.38;69.49
66752;SHT31;53663;42.676;23.238;2023-08-20T04:16:54;19.49;69.19
66752;SHT31;53663;42.676;23.238;2023-08-20T04:19:19;19.61;68.82
66752;SHT31;53663;42.676;23.238;2023-08-20T04:21:45;19.69;68.38
66752;SHT31;53663;42.676;23.238;2023-08-20T04:24:10;19.79;68.48
66752;SHT31;53663;42.676;23.238;2023-08-20T04:26:36;19.87;68.71
66752;SHT31;53663;42.676;23.238;2023-08-20T04:29:02;19.98;68.28
66752;SHT31;53663;42.676;23.238;2023-08-20T04:31:29;20.09;68.48
66752;SHT31;53663;42.676;23.238;2023-08-20T04:34:00;20.23;68.40
66752;SHT31;53663;42.676;23.238;2023-08-20T04:36:37;20.37;67.81
66752;SHT31;53663;42.676;23.238;2023-08-20T04:39:02;20.51;67.39
66752;SHT31;53663;42.676;23.238;2023-08-20T04:41:28;20.62;66.34
66752;SHT31;53663;42.676;23.238;2023-08-20T04:43:54;20.78;65.58
66752;SHT31;53663;42.676;23.238;2023-08-20T04:46:21;21.26;64.58
66752;SHT31;53663;42.676;23.238;2023-08-20T04:48:47;22.16;61.60
66752;SHT31;53663;42.676;23.238;2023-08-20T04:51:12;23.01;59.16
66752;SHT31;53663;42.676;23.238;2023-08-20T04:53:38;23.79;56.61
66752;SHT31;53663;42.676;23.238;2023-08-20T04:56:04;24.37;53.80
66752;SHT31;53663;42.676;23.238;2023-08-20T04:58:29;24.69;52.27
66752;SHT31;53663;42.676;23.238;2023-08-20T05:00:56;25.10;51.85
66752;SHT31;53663;42.676;23.238;2023-08-20T05:03:22;25.15;52.52
66752;SHT31;53663;42.676;23.238;2023-08-20T05:05:49;25.86;51.31
66752;SHT31;53663;42.676;23.238;2023-08-20T05:08:15;26.11;50.53
66752;SHT31;53663;42.676;23.238;2023-08-20T05:10:40;26.33;49.58
66752;SHT31;53663;42.676;23.238;2023-08-20T05:13:05;26.84;48.85
66752;SHT31;53663;42.676;23.238;2023-08-20T05:15:31;27.56;47.28
66752;SHT31;53663;42.676;23.238;2023-08-20T05:17:57;28.29;45.66
66752;SHT31;53663;42.676;23.238;2023-08-20T05:20:22;28.83;44.45
66752;SHT31;53663;42.676;23.238;2023-08-20T05:22:48;28.80;44.59
66752;SHT31;53663;42.676;23.238;2023-08-20T05:25:13;29.20;42.71
66752;SHT31;53663;42.676;23.238;2023-08-20T05:27:41;29.95;41.52
66752;SHT31;53663;42.676;23.238;2023-08-20T05:30:06;30.41;40.83
66752;SHT31;53663;42.676;23.238;2023-08-20T05:32:33;31.04;39.91
66752;SHT31;53663;42.676;23.238;2023-08-20T05:34:59;32.27;36.73
66752;SHT31;53663;42.676;23.238;2023-08-20T05:37:25;32.71;36.50
66752;SHT31;53663;42.676;23.238;2023-08-20T05:39:50;32.88;36.68
66752;SHT31;53663;42.676;23.238;2023-08-20T05:42:16;32.90;35.82
66752;SHT31;53663;42.676;23.238;2023-08-20T05:44:49;33.34;34.92
66752;SHT31;53663;42.676;23.238;2023-08-20T05:47:19;32.28;37.33
66752;SHT31;53663;42.676;23.238;2023-08-20T05:49:45;31.77;38.09
66752;SHT31;53663;42.676;23.238;2023-08-20T05:52:10;32.31;37.10
66752;SHT31;53663;42.676;23.238;2023-08-20T05:54:37;32.69;36.05
66752;SHT31;53663;42.676;23.238;2023-08-20T05:57:02;33.39;34.57
66752;SHT31;53663;42.676;23.238;2023-08-20T05:59:28;33.53;34.85
66752;SHT31;53663;42.676;23.238;2023-08-20T06:01:54;33.95;35.12
66752;SHT31;53663;42.676;23.238;2023-08-20T06:04:20;32.89;36.81
66752;SHT31;53663;42.676;23.238;2023-08-20T06:06:45;32.68;36.78
66752;SHT31;53663;42.676;23.238;2023-08-20T06:09:11;33.73;34.84
66752;SHT31;53663;42.676;23.238;2023-08-20T06:11:36;33.06;36.07
66752;SHT31;53663;42.676;23.238;2023-08-20T06:14:02;33.42;35.23
66752;SHT31;53663;42.676;23.238;2023-08-20T06:16:28;33.39;35.96
66752;SHT31;53663;42.676;23.238;2023-08-20T06:18:53;33.75;35.03
66752;SHT31;53663;42.676;23.238;2023-08-20T06:21:18;32.28;37.97
66752;SHT31;53663;42.676;23.238;2023-08-20T06:23:44;32.11;37.31
66752;SHT31;53663;42.676;23.238;2023-08-20T06:26:10;33.25;36.10
66752;SHT31;53663;42.676;23.238;2023-08-20T06:28:35;34.02;35.31
66752;SHT31;53663;42.676;23.238;2023-08-20T06:31:01;34.48;34.24
66752;SHT31;53663;42.676;23.238;2023-08-20T06:33:26;35.15;33.35
66752;SHT31;53663;42.676;23.238;2023-08-20T06:35:52;34.91;33.81
66752;SHT31;53663;42.676;23.238;2023-08-20T06:38:17;35.08;32.83
66752;SHT31;53663;42.676;23.238;2023-08-20T06:40:43;36.04;31.32
66752;SHT31;53663;42.676;23.238;2023-08-20T06:43:08;37.37;30.38
66752;SHT31;53663;42.676;23.238;2023-08-20T06:45:34;38.44;28.63
66752;SHT31;53663;42.676;23.238;2023-08-20T06:47:59;38.82;27.75
66752;SHT31;53663;42.676;23.238;2023-08-20T06:50:25;38.69;27.74
66752;SHT31;53663;42.676;23.238;2023-08-20T06:52:50;36.92;28.95
66752;SHT31;53663;42.676;23.238;2023-08-20T06:55:16;37.57;28.66
66752;SHT31;53663;42.676;23.238;2023-08-20T06:57:41;38.45;27.56
66752;SHT31;53663;42.676;23.238;2023-08-20T07:00:07;37.11;29.36
66752;SHT31;53663;42.676;23.238;2023-08-20T07:02:32;36.71;29.47
66752;SHT31;53663;42.676;23.238;2023-08-20T07:04:58;37.69;28.95
66752;SHT31;53663;42.676;23.238;2023-08-20T07:07:23;36.96;28.76
66752;SHT31;53663;42.676;23.238;2023-08-20T07:09:49;37.35;28.44
66752;SHT31;53663;42.676;23.238;2023-08-20T07:12:14;36.78;29.16
66752;SHT31;53663;42.676;23.238;2023-08-20T07:14:40;36.23;30.42
66752;SHT31;53663;42.676;23.238;2023-08-20T07:17:05;35.64;31.20
66752;SHT31;53663;42.676;23.238;2023-08-20T07:19:31;36.20;30.03
66752;SHT31;53663;42.676;23.238;2023-08-20T07:21:56;34.61;31.63
66752;SHT31;53663;42.676;23.238;2023-08-20T07:24:22;34.08;33.05
66752;SHT31;53663;42.676;23.238;2023-08-20T07:26:51;33.09;33.93
66752;SHT31;53663;42.676;23.238;2023-08-20T07:29:17;32.80;34.80
66752;SHT31;53663;42.676;23.238;2023-08-20T07:31:42;32.65;34.97
66752;SHT31;53663;42.676;23.238;2023-08-20T07:34:08;33.03;34.27
66752;SHT31;53663;42.676;23.238;2023-08-20T07:36:33;32.88;34.95
66752;SHT31;53663;42.676;23.238;2023-08-20T07:38:59;33.05;34.43
66752;SHT31;53663;42.676;23.238;2023-08-20T07:41:25;33.31;34.20
66752;SHT31;53663;42.676;23.238;2023-08-20T07:43:50;33.39;33.76
66752;SHT31;53663;42.676;23.238;2023-08-20T07:46:16;32.90;33.87
66752;SHT31;53663;42.676;23.238;2023-08-20T07:48:42;32.61;34.51
66752;SHT31;53663;42.676;23.238;2023-08-20T07:51:07;32.65;34.74
66752;SHT31;53663;42.676;23.238;2023-08-20T07:53:33;32.62;34.34
66752;SHT31;53663;42.676;23.238;2023-08-20T07:56:00;31.93;35.54
66752;SHT31;53663;42.676;23.238;2023-08-20T07:58:26;31.38;36.40
66752;SHT31;53663;42.676;23.238;2023-08-20T08:00:51;31.45;35.72
66752;SHT31;53663;42.676;23.238;2023-08-20T08:03:17;31.42;36.30
66752;SHT31;53663;42.676;23.238;2023-08-20T08:05:49;31.42;37.23
66752;SHT31;53663;42.676;23.238;2023-08-20T08:08:18;31.52;36.01
66752;SHT31;53663;42.676;23.238;2023-08-20T08:10:45;31.32;36.43
66752;SHT31;53663;42.676;23.238;2023-08-20T08:13:14;31.42;35.68
66752;SHT31;53663;42.676;23.238;2023-08-20T08:15:40;31.42;35.52
66752;SHT31;53663;42.676;23.238;2023-08-20T08:18:07;31.02;36.64
66752;SHT31;53663;42.676;23.238;2023-08-20T08:20:33;31.26;35.66
66752;SHT31;53663;42.676;23.238;2023-08-20T08:22:59;31.26;37.20
66752;SHT31;53663;42.676;23.238;2023-08-20T08:25:25;31.62;34.96
66752;SHT31;53663;42.676;23.238;2023-08-20T08:27:50;31.70;35.09
66752;SHT31;53663;42.676;23.238;2023-08-20T08:30:16;30.43;36.74
66752;SHT31;53663;42.676;23.238;2023-08-20T08:32:41;30.78;36.64
66752;SHT31;53663;42.676;23.238;2023-08-20T08:35:07;30.92;35.27
66752;SHT31;53663;42.676;23.238;2023-08-20T08:37:33;31.24;35.66
66752;SHT31;53663;42.676;23.238;2023-08-20T08:39:58;31.63;33.82
66752;SHT31;53663;42.676;23.238;2023-08-20T08:42:24;31.04;34.76
66752;SHT31;53663;42.676;23.238;2023-08-20T08:44:50;31.25;34.02
66752;SHT31;53663;42.676;23.238;2023-08-20T08:47:17;31.43;34.40
66752;SHT31;53663;42.676;23.238;2023-08-20T08:49:44;31.15;34.34
66752;SHT31;53663;42.676;23.238;2023-08-20T08:52:11;31.19;34.62
66752;SHT31;53663;42.676;23.238;2023-08-20T08:54:37;31.10;34.55
66752;SHT31;53663;42.676;23.238;2023-08-20T08:57:03;31.16;34.87
66752;SHT31;53663;42.676;23.238;2023-08-20T08:59:29;31.41;34.35
66752;SHT31;53663;42.676;23.238;2023-08-20T09:01:54;31.67;33.81
66752;SHT31;53663;42.676;23.238;2023-08-20T09:04:22;32.03;34.03
66752;SHT31;53663;42.676;23.238;2023-08-20T09:06:49;32.06;31.76
66752;SHT31;53663;42.676;23.238;2023-08-20T09:09:17;31.80;33.70
66752;SHT31;53663;42.676;23.238;2023-08-20T09:11:42;31.91;32.87
66752;SHT31;53663;42.676;23.238;2023-08-20T09:14:08;31.46;32.84
66752;SHT31;53663;42.676;23.238;2023-08-20T09:16:37;31.55;33.85
66752;SHT31;53663;42.676;23.238;2023-08-20T09:19:02;31.94;33.90
66752;SHT31;53663;42.676;23.238;2023-08-20T09:21:29;32.17;33.27
66752;SHT31;53663;42.676;23.238;2023-08-20T09:23:56;32.16;32.20
66752;SHT31;53663;42.676;23.238;2023-08-20T09:26:23;32.25;32.20
66752;SHT31;53663;42.676;23.238;2023-08-20T09:28:48;32.21;31.76
66752;SHT31;53663;42.676;23.238;2023-08-20T09:31:14;31.80;31.68
66752;SHT31;53663;42.676;23.238;2023-08-20T09:33:53;31.83;33.45
66752;SHT31;53663;42.676;23.238;2023-08-20T09:36:29;32.03;31.93
66752;SHT31;53663;42.676;23.238;2023-08-20T09:38:54;32.30;32.24
66752;SHT31;53663;42.676;23.238;2023-08-20T09:41:21;32.27;32.13
66752;SHT31;53663;42.676;23.238;2023-08-20T09:43:48;32.04;32.44
66752;SHT31;53663;42.676;23.238;2023-08-20T09:46:18;31.97;33.67
66752;SHT31;53663;42.676;23.238;2023-08-20T09:48:47;32.03;32.37
66752;SHT31;53663;42.676;23.238;2023-08-20T09:51:19;32.21;31.32
66752;SHT31;53663;42.676;23.238;2023-08-20T09:54:09;31.98;31.44
66752;SHT31;53663;42.676;23.238;2023-08-20T09:56:43;31.91;32.41
66752;SHT31;53663;42.676;23.238;2023-08-20T09:59:13;32.17;31.59
66752;SHT31;53663;42.676;23.238;2023-08-20T10:01:38;32.07;33.44
66752;SHT31;53663;42.676;23.238;2023-08-20T10:04:04;32.07;31.36
66752;SHT31;53663;42.676;23.238;2023-08-20T10:06:31;32.00;31.80
66752;SHT31;53663;42.676;23.238;2023-08-20T10:08:58;32.14;31.44
66752;SHT31;53663;42.676;23.238;2023-08-20T10:11:24;32.38;31.54
66752;SHT31;53663;42.676;23.238;2023-08-20T10:13:49;32.65;30.80
66752;SHT31;53663;42.676;23.238;2023-08-20T10:16:17;32.65;29.88
66752;SHT31;53663;42.676;23.238;2023-08-20T10:18:46;32.54;30.09
66752;SHT31;53663;42.676;23.238;2023-08-20T10:21:12;32.57;30.10
66752;SHT31;53663;42.676;23.238;2023-08-20T10:23:40;32.49;30.88
66752;SHT31;53663;42.676;23.238;2023-08-20T10:26:09;32.34;30.53
66752;SHT31;53663;42.676;23.238;2023-08-20T10:28:35;32.10;30.19
66752;SHT31;53663;42.676;23.238;2023-08-20T10:31:11;32.25;30.91
66752;SHT31;53663;42.676;23.238;2023-08-20T10:33:57;32.37;30.45
66752;SHT31;53663;42.676;23.238;2023-08-20T10:36:24;32.45;31.92
66752;SHT31;53663;42.676;23.238;2023-08-20T10:38:56;32.55;29.77
66752;SHT31;53663;42.676;23.238;2023-08-20T10:41:27;32.10;30.56
66752;SHT31;53663;42.676;23.238;2023-08-20T10:43:57;31.82;31.03
66752;SHT31;53663;42.676;23.238;2023-08-20T10:46:23;31.97;31.61
66752;SHT31;53663;42.676;23.238;2023-08-20T10:48:54;32.20;30.88
66752;SHT31;53663;42.676;23.238;2023-08-20T10:59:29;32.04;31.19
66752;SHT31;53663;42.676;23.238;2023-08-20T11:01:57;32.10;30.45
66752;SHT31;53663;42.676;23.238;2023-08-20T11:04:27;31.98;31.97
66752;SHT31;53663;42.676;23.238;2023-08-20T11:06:54;32.09;30.96
66752;SHT31;53663;42.676;23.238;2023-08-20T11:09:25;32.07;30.48
66752;SHT31;53663;42.676;23.238;2023-08-20T11:11:52;32.01;30.91
66752;SHT31;53663;42.676;23.238;2023-08-20T11:14:19;32.23;30.62
66752;SHT31;53663;42.676;23.238;2023-08-20T11:16:45;32.07;30.93
66752;SHT31;53663;42.676;23.238;2023-08-20T11:19:12;32.28;30.26
66752;SHT31;53663;42.676;23.238;2023-08-20T11:21:40;32.23;30.59
66752;SHT31;53663;42.676;23.238;2023-08-20T11:24:06;32.11;30.42
66752;SHT31;53663;42.676;23.238;2023-08-20T11:26:38;32.28;29.69
66752;SHT31;53663;42.676;23.238;2023-08-20T11:29:15;32.23;30.20
66752;SHT31;53663;42.676;23.238;2023-08-20T11:31:46;32.13;29.98
66752;SHT31;53663;42.676;23.238;2023-08-20T11:34:11;32.19;30.66
66752;SHT31;53663;42.676;23.238;2023-08-20T11:36:38;32.30;30.75
66752;SHT31;53663;42.676;23.238;2023-08-20T11:39:07;32.31;29.03
66752;SHT31;53663;42.676;23.238;2023-08-20T11:41:36;32.00;31.17
66752;SHT31;53663;42.676;23.238;2023-08-20T11:44:03;32.11;31.95
66752;SHT31;53663;42.676;23.238;2023-08-20T11:46:29;32.31;31.28
66752;SHT31;53663;42.676;23.238;2023-08-20T11:49:04;32.30;29.79
66752;SHT31;53663;42.676;23.238;2023-08-20T11:51:47;32.25;32.20
66752;SHT31;53663;42.676;23.238;2023-08-20T11:54:15;32.48;30.35
66752;SHT31;53663;42.676;23.238;2023-08-20T11:56:45;32.49;31.46
66752;SHT31;53663;42.676;23.238;2023-08-20T11:59:12;32.52;30.33
66752;SHT31;53663;42.676;23.238;2023-08-20T12:01:38;32.49;30.95
66752;SHT31;53663;42.676;23.238;2023-08-20T12:04:04;32.51;30.93
66752;SHT31;53663;42.676;23.238;2023-08-20T12:06:31;32.14;32.36
66752;SHT31;53663;42.676;23.238;2023-08-20T12:08:57;32.19;31.46
66752;SHT31;53663;42.676;23.238;2023-08-20T12:11:24;32.16;32.77
66752;SHT31;53663;42.676;23.238;2023-08-20T12:13:51;32.49;33.00
66752;SHT31;53663;42.676;23.238;2023-08-20T12:16:17;32.27;31.28
66752;SHT31;53663;42.676;23.238;2023-08-20T12:18:45;32.24;31.64
66752;SHT31;53663;42.676;23.238;2023-08-20T12:21:11;32.19;32.59
66752;SHT31;53663;42.676;23.238;2023-08-20T12:23:36;32.13;32.15
66752;SHT31;53663;42.676;23.238;2023-08-20T12:26:02;32.42;31.39
66752;SHT31;53663;42.676;23.238;2023-08-20T12:28:27;32.40;31.29
66752;SHT31;53663;42.676;23.238;2023-08-20T12:30:53;32.32;31.50
66752;SHT31;53663;42.676;23.238;2023-08-20T12:33:19;32.47;32.44
66752;SHT31;53663;42.676;23.238;2023-08-20T12:35:46;32.42;33.98
66752;SHT31;53663;42.676;23.238;2023-08-20T12:38:12;32.57;33.18
66752;SHT31;53663;42.676;23.238;2023-08-20T12:40:37;32.69;30.94
66752;SHT31;53663;42.676;23.238;2023-08-20T12:43:03;32.88;31.36
66752;SHT31;53663;42.676;23.238;2023-08-20T12:45:29;33.03;32.01
66752;SHT31;53663;42.676;23.238;2023-08-20T12:47:55;33.00;31.76
66752;SHT31;53663;42.676;23.238;2023-08-20T12:50:20;32.82;31.94
66752;SHT31;53663;42.676;23.238;2023-08-20T12:52:46;32.99;31.08
66752;SHT31;53663;42.676;23.238;2023-08-20T12:55:14;33.09;31.85
66752;SHT31;53663;42.676;23.238;2023-08-20T12:57:55;33.09;31.77
66752;SHT31;53663;42.676;23.238;2023-08-20T13:00:22;33.02;31.14
66752;SHT31;53663;42.676;23.238;2023-08-20T13:02:48;33.07;32.24
66752;SHT31;53663;42.676;23.238;2023-08-20T13:05:14;32.92;30.47
66752;SHT31;53663;42.676;23.238;2023-08-20T13:07:40;32.54;32.11
66752;SHT31;53663;42.676;23.238;2023-08-20T13:10:06;32.55;32.61
66752;SHT31;53663;42.676;23.238;2023-08-20T13:12:34;32.62;31.95
66752;SHT31;53663;42.676;23.238;2023-08-20T13:15:00;32.54;31.71
66752;SHT31;53663;42.676;23.238;2023-08-20T13:17:26;32.25;32.10
66752;SHT31;53663;42.676;23.238;2023-08-20T13:19:51;32.11;31.95
66752;SHT31;53663;42.676;23.238;2023-08-20T13:22:17;31.96;32.74
66752;SHT31;53663;42.676;23.238;2023-08-20T13:24:43;32.10;32.94
66752;SHT31;53663;42.676;23.238;2023-08-20T13:27:08;32.09;32.47
66752;SHT31;53663;42.676;23.238;2023-08-20T13:29:34;31.93;32.68
66752;SHT31;53663;42.676;23.238;2023-08-20T13:31:59;31.80;33.72
66752;SHT31;53663;42.676;23.238;2023-08-20T13:34:26;31.59;33.37
66752;SHT31;53663;42.676;23.238;2023-08-20T13:36:51;31.56;33.26
66752;SHT31;53663;42.676;23.238;2023-08-20T13:39:17;31.61;33.56
66752;SHT31;53663;42.676;23.238;2023-08-20T13:41:44;31.66;34.35
66752;SHT31;53663;42.676;23.238;2023-08-20T13:44:09;31.70;33.52
66752;SHT31;53663;42.676;23.238;2023-08-20T13:46:36;31.73;33.97
66752;SHT31;53663;42.676;23.238;2023-08-20T13:49:02;31.66;34.31
66752;SHT31;53663;42.676;23.238;2023-08-20T13:51:29;31.56;33.29
66752;SHT31;53663;42.676;23.238;2023-08-20T13:53:55;31.47;33.32
66752;SHT31;53663;42.676;23.238;2023-08-20T13:56:20;31.43;34.16
66752;SHT31;53663;42.676;23.238;2023-08-20T13:58:46;31.55;34.29
66752;SHT31;53663;42.676;23.238;2023-08-20T14:01:11;31.63;32.79
66752;SHT31;53663;42.676;23.238;2023-08-20T14:03:39;31.45;33.73
66752;SHT31;53663;42.676;23.238;2023-08-20T14:06:05;31.49;33.39
66752;SHT31;53663;42.676;23.238;2023-08-20T14:08:31;31.36;33.58
66752;SHT31;53663;42.676;23.238;2023-08-20T14:10:57;31.42;33.90
66752;SHT31;53663;42.676;23.238;2023-08-20T14:13:23;31.42;33.36
66752;SHT31;53663;42.676;23.238;2023-08-20T14:15:48;31.31;33.48
66752;SHT31;53663;42.676;23.238;2023-08-20T14:18:14;31.26;33.42
66752;SHT31;53663;42.676;23.238;2023-08-20T14:20:39;31.25;33.34
66752;SHT31;53663;42.676;23.238;2023-08-20T14:23:05;31.34;33.23
66752;SHT31;53663;42.676;23.238;2023-08-20T14:25:30;31.29;33.30
66752;SHT31;53663;42.676;23.238;2023-08-20T14:27:56;31.14;33.89
66752;SHT31;53663;42.676;23.238;2023-08-20T14:30:22;31.18;33.39
66752;SHT31;53663;42.676;23.238;2023-08-20T14:32:47;31.14;33.73
66752;SHT31;53663;42.676;23.238;2023-08-20T14:35:14;31.07;33.22
66752;SHT31;53663;42.676;23.238;2023-08-20T14:37:40;31.14;34.06
66752;SHT31;53663;42.676;23.238;2023-08-20T14:40:06;31.14;33.92
66752;SHT31;53663;42.676;23.238;2023-08-20T14:42:32;31.07;33.92
66752;SHT31;53663;42.676;23.238;2023-08-20T14:44:58;30.99;34.44
66752;SHT31;53663;42.676;23.238;2023-08-20T14:47:23;30.95;34.08
66752;SHT31;53663;42.676;23.238;2023-08-20T14:49:49;30.97;33.87
66752;SHT31;53663;42.676;23.238;2023-08-20T14:52:15;30.97;33.70
66752;SHT31;53663;42.676;23.238;2023-08-20T14:54:41;30.95;33.75
66752;SHT31;53663;42.676;23.238;2023-08-20T14:57:07;30.87;33.68
66752;SHT31;53663;42.676;23.238;2023-08-20T14:59:33;30.73;34.39
66752;SHT31;53663;42.676;23.238;2023-08-20T15:01:59;30.61;34.90
66752;SHT31;53663;42.676;23.238;2023-08-20T15:04:24;30.59;34.27
66752;SHT31;53663;42.676;23.238;2023-08-20T15:06:50;30.59;34.13
66752;SHT31;53663;42.676;23.238;2023-08-20T15:09:15;30.57;34.53
66752;SHT31;53663;42.676;23.238;2023-08-20T15:11:42;30.52;34.82
66752;SHT31;53663;42.676;23.238;2023-08-20T15:14:08;30.46;35.39
66752;SHT31;53663;42.676;23.238;2023-08-20T15:16:33;30.23;34.63
66752;SHT31;53663;42.676;23.238;2023-08-20T15:18:59;30.26;34.37
66752;SHT31;53663;42.676;23.238;2023-08-20T15:21:24;30.10;34.60
66752;SHT31;53663;42.676;23.238;2023-08-20T15:23:50;30.15;35.33